sensor_id;sensor_type;location;lat;lon;timestamp;pressure;altitude;pressure_sealevel;temperature;humidity
19748;BME280;10032;51.386;12.516;2022-08-01T00:02:27;99927.75;;;22.67;100.00
19748;BME280;10032;51.386;12.516;2022-08-01T00:04:54;99923.72;;;22.64;100.00
19748;BME280;10032;51.386;12.516;2022-08-01T00:07:19;99921.78;;;22.65;100.00
19748;BME280;10032;51.386;12.516;2022-08-01T00:09:44;99920.94;;;22.64;100.00
19748;BME280;10032;51.386;12.516;2022-08-01T00:12:10;99920.50;;;22.62;100.00
19748;BME280;10032;51.386;12.516;2022-08-01T00:14:35;99921.59;;;22.61;100.00
19748;BME280;10032;51.386;12.516;2022-08-01T00:17:01;99920.00;;;22.60;100.00
19748;BME280;10032;51.386;12.516;2022-08-01T00:19:26;99917.56;;;22.59;100.00
19748;BME280;10032;51.386;12.516;2022-08-01T00:21:52;99919.06;;;22.56;100.00
19748;BME280;10032;51.386;12.516;2022-08-01T00:24:17;99922.81;;;22.52;100.00
19748;BME280;10032;51.386;12.516;2022-08-01T00:26:42;99927.38;;;22.48;100.00
19748;BME280;10032;51.386;12.516;2022-08-01T00:29:08;99919.44;;;22.46;100.00
19748;BME280;10032;51.386;12.516;2022-08-01T00:31:33;99922.53;;;22.45;100.00
19748;BME280;10032;51.386;12.516;2022-08-01T00:33:58;99917.63;;;22.42;100.00
19748;BME280;10032;51.386;12.516;2022-08-01T00:36:24;99919.25;;;22.43;100.00
19748;BME280;10032;51.386;12.516;2022-08-01T00:38:49;99920.06;;;22.43;100.00
19748;BME280;10032;51.386;12.516;2022-08-01T00:41:15;99923.69;;;22.44;100.00
19748;BME280;10032;51.386;12.516;2022-08-01T00:43:40;99920.56;;;22.45;100.00
19748;BME280;10032;51.386;12.516;2022-08-01T00:46:06;99923.31;;;22.45;100.00
19748;BME280;10032;51.386;12.516;2022-08-01T00:48:31;99922.34;;;22.50;100.00
19748;BME280;10032;51.386;12.516;2022-08-01T00:50:57;99924.78;;;22.51;100.00
19748;BME280;10032;51.386;12.516;2022-08-01T00:53:22;99918.09;;;22.52;100.00
19748;BME280;10032;51.386;12.516;2022-08-01T00:55:48;99922.47;;;22.53;100.00
19748;BME280;10032;51.386;12.516;2022-08-01T00:58:13;99925.25;;;22.53;100.00
19748;BME280;10032;51.386;12.516;2022-08-01T01:00:39;99922.16;;;22.55;100.00
19748;BME280;10032;51.386;12.516;2022-08-01T01:03:05;99931.09;;;22.52;100.00
19748;BME280;10032;51.386;12.516;2022-08-01T01:05:36;99919.25;;;22.51;100.00
19748;BME280;10032;51.386;12.516;2022-08-01T01:08:14;99926.72;;;22.51;100.00
19748;BME280;10032;51.386;12.516;2022-08-01T01:13:18;99916.84;;;22.41;100.00
19748;BME280;10032;51.386;12.516;2022-08-01T01:15:55;99916.34;;;22.39;100.00
19748;BME280;10032;51.386;12.516;2022-08-01T01:18:38;99916.66;;;22.38;100.00
19748;BME280;10032;51.386;12.516;2022-08-01T01:29:16;99914.91;;;22.33;100.00
19748;BME280;10032;51.386;12.516;2022-08-01T01:31:52;99914.91;;;22.33;100.00
19748;BME280;10032;51.386;12.516;2022-08-01T01:34:22;99923.38;;;22.28;100.00
19748;BME280;10032;51.386;12.516;2022-08-01T01:36:49;99919.47;;;22.29;100.00
19748;BME280;10032;51.386;12.516;2022-08-01T01:39:15;99925.50;;;22.31;100.00
19748;BME280;10032;51.386;12.516;2022-08-01T01:41:43;99914.13;;;22.33;100.00
19748;BME280;10032;51.386;12.516;2022-08-01T01:44:09;99917.22;;;22.31;100.00
19748;BME280;10032;51.386;12.516;2022-08-01T01:46:36;99918.00;;;22.32;100.00
19748;BME280;10032;51.386;12.516;2022-08-01T01:49:03;99906.63;;;22.33;100.00
19748;BME280;10032;51.386;12.516;2022-08-01T01:51:30;99904.56;;;22.30;100.00
19748;BME280;10032;51.386;12.516;2022-08-01T01:53:56;99906.63;;;22.33;100.00
19748;BME280;10032;51.386;12.516;2022-08-01T01:56:23;99914.28;;;22.36;100.00
19748;BME280;10032;51.386;12.516;2022-08-01T01:58:55;99915.19;;;22.40;100.00
19748;BME280;10032;51.386;12.516;2022-08-01T02:01:23;99904.00;;;22.37;100.00
19748;BME280;10032;51.386;12.516;2022-08-01T02:03:51;99905.50;;;22.34;100.00
19748;BME280;10032;51.386;12.516;2022-08-01T02:06:20;99907.78;;;22.32;100.00
19748;BME280;10032;51.386;12.516;2022-08-01T02:08:47;99911.00;;;22.34;100.00
19748;BME280;10032;51.386;12.516;2022-08-01T02:11:13;99909.91;;;22.35;100.00
19748;BME280;10032;51.386;12.516;2022-08-01T02:13:53;99911.00;;;22.34;100.00
19748;BME280;10032;51.386;12.516;2022-08-01T02:16:19;99913.78;;;22.34;100.00
19748;BME280;10032;51.386;12.516;2022-08-01T02:18:46;99918.31;;;22.39;100.00
19748;BME280;10032;51.386;12.516;2022-08-01T02:21:13;99923.84;;;22.39;100.00
19748;BME280;10032;51.386;12.516;2022-08-01T02:23:42;99914.28;;;22.36;100.00
19748;BME280;10032;51.386;12.516;2022-08-01T02:26:10;99917.69;;;22.33;100.00
19748;BME280;10032;51.386;12.516;2022-08-01T02:28:59;99916.72;;;22.29;100.00
19748;BME280;10032;51.386;12.516;2022-08-01T02:31:29;99917.72;;;22.25;100.00
19748;BME280;10032;51.386;12.516;2022-08-01T02:34:00;99924.25;;;22.20;100.00
19748;BME280;10032;51.386;12.516;2022-08-01T02:36:33;99922.81;;;22.14;100.00
19748;BME280;10032;51.386;12.516;2022-08-01T02:39:09;99925.09;;;22.12;100.00
19748;BME280;10032;51.386;12.516;2022-08-01T02:41:40;99920.72;;;22.11;100.00
19748;BME280;10032;51.386;12.516;2022-08-01T02:44:09;99922.31;;;22.12;100.00
19748;BME280;10032;51.386;12.516;2022-08-01T02:46:42;99911.97;;;22.09;100.00
19748;BME280;10032;51.386;12.516;2022-08-01T02:49:10;99912.16;;;22.04;100.00
19748;BME280;10032;51.386;12.516;2022-08-01T02:51:39;99910.34;;;22.00;100.00
19748;BME280;10032;51.386;12.516;2022-08-01T02:54:06;99915.09;;;21.99;100.00
19748;BME280;10032;51.386;12.516;2022-08-01T02:56:34;99918.50;;;21.96;100.00
19748;BME280;10032;51.386;12.516;2022-08-01T02:59:08;99915.44;;;21.89;100.00
19748;BME280;10032;51.386;12.516;2022-08-01T03:01:37;99920.63;;;21.91;100.00
19748;BME280;10032;51.386;12.516;2022-08-01T03:04:04;99928.72;;;21.87;100.00
19748;BME280;10032;51.386;12.516;2022-08-01T03:06:31;99930.38;;;21.88;100.00
19748;BME280;10032;51.386;12.516;2022-08-01T03:08:58;99920.00;;;21.85;100.00
19748;BME280;10032;51.386;12.516;2022-08-01T03:11:26;99933.78;;;21.85;100.00
19748;BME280;10032;51.386;12.516;2022-08-01T03:13:53;99932.34;;;21.79;100.00
19748;BME280;10032;51.386;12.516;2022-08-01T03:16:22;99939.47;;;21.80;100.00
19748;BME280;10032;51.386;12.516;2022-08-01T03:18:51;99936.41;;;21.82;100.00
19748;BME280;10032;51.386;12.516;2022-08-01T03:21:20;99939.47;;;21.80;100.00
19748;BME280;10032;51.386;12.516;2022-08-01T03:23:47;99939.50;;;21.72;100.00
19748;BME280;10032;51.386;12.516;2022-08-01T03:26:14;99943.22;;;21.76;100.00
19748;BME280;10032;51.386;12.516;2022-08-01T03:28:41;99948.06;;;21.79;100.00
19748;BME280;10032;51.386;12.516;2022-08-01T03:31:10;99951.19;;;21.77;100.00
19748;BME280;10032;51.386;12.516;2022-08-01T03:33:37;99950.38;;;21.68;100.00
19748;BME280;10032;51.386;12.516;2022-08-01T03:36:04;99955.38;;;21.66;100.00
19748;BME280;10032;51.386;12.516;2022-08-01T03:38:32;99944.19;;;21.63;100.00
19748;BME280;10032;51.386;12.516;2022-08-01T03:41:02;99947.75;;;21.63;100.00
19748;BME280;10032;51.386;12.516;2022-08-01T03:43:38;99952.97;;;21.65;100.00
19748;BME280;10032;51.386;12.516;2022-08-01T03:46:10;99957.81;;;21.59;100.00
19748;BME280;10032;51.386;12.516;2022-08-01T03:48:39;99960.72;;;21.63;100.00
19748;BME280;10032;51.386;12.516;2022-08-01T03:51:07;99950.38;;;21.68;100.00
19748;BME280;10032;51.386;12.516;2022-08-01T03:53:33;99962.22;;;21.69;100.00
19748;BME280;10032;51.386;12.516;2022-08-01T03:56:01;99960.75;;;21.71;100.00
19748;BME280;10032;51.386;12.516;2022-08-01T03:58:28;99955.38;;;21.66;100.00
19748;BME280;10032;51.386;12.516;2022-08-01T04:00:55;99953.44;;;21.67;100.00
19748;BME280;10032;51.386;12.516;2022-08-01T04:03:21;99955.91;;;21.68;100.00
19748;BME280;10032;51.386;12.516;2022-08-01T04:05:47;99962.03;;;21.65;100.00
19748;BME280;10032;51.386;12.516;2022-08-01T04:08:12;99953.75;;;21.65;100.00
19748;BME280;10032;51.386;12.516;2022-08-01T04:10:38;99962.84;;;21.66;100.00
19748;BME280;10032;51.386;12.516;2022-08-01T04:13:03;99960.28;;;21.69;100.00
19748;BME280;10032;51.386;12.516;2022-08-01T04:15:29;99961.72;;;21.75;100.00
19748;BME280;10032;51.386;12.516;2022-08-01T04:17:54;99970.81;;;21.76;100.00
19748;BME280;10032;51.386;12.516;2022-08-01T04:20:20;99968.84;;;21.76;100.00
19748;BME280;10032;51.386;12.516;2022-08-01T04:22:46;99971.47;;;21.73;100.00
19748;BME280;10032;51.386;12.516;2022-08-01T04:25:19;99980.69;;;21.77;100.00
19748;BME280;10032;51.386;12.516;2022-08-01T04:27:48;99976.97;;;21.81;100.00
19748;BME280;10032;51.386;12.516;2022-08-01T04:30:14;99975.50;;;21.75;100.00
19748;BME280;10032;51.386;12.516;2022-08-01T04:32:43;99978.09;;;21.63;100.00
19748;BME280;10032;51.386;12.516;2022-08-01T04:35:12;99983.47;;;21.60;100.00
19748;BME280;10032;51.386;12.516;2022-08-01T04:37:43;99990.09;;;21.50;100.00
19748;BME280;10032;51.386;12.516;2022-08-01T04:40:10;99993.34;;;21.52;100.00
19748;BME280;10032;51.386;12.516;2022-08-01T04:42:36;100000.00;;;21.51;100.00
19748;BME280;10032;51.386;12.516;2022-08-01T04:45:01;99992.53;;;21.52;100.00
19748;BME280;10032;51.386;12.516;2022-08-01T04:47:27;99994.00;;;21.49;100.00
19748;BME280;10032;51.386;12.516;2022-08-01T04:49:54;99986.69;;;21.53;100.00
19748;BME280;10032;51.386;12.516;2022-08-01T04:52:21;99997.56;;;21.58;100.00
19748;BME280;10032;51.386;12.516;2022-08-01T04:54:47;99992.53;;;21.60;100.00
19748;BME280;10032;51.386;12.516;2022-08-01T04:57:12;99992.88;;;21.59;100.00
19748;BME280;10032;51.386;12.516;2022-08-01T04:59:42;99998.03;;;21.60;100.00
19748;BME280;10032;51.386;12.516;2022-08-01T05:02:13;100000.00;;;21.60;100.00
19748;BME280;10032;51.386;12.516;2022-08-01T05:04:41;99999.69;;;21.61;100.00
19748;BME280;10032;51.386;12.516;2022-08-01T05:07:07;100000.16;;;21.63;100.00
19748;BME280;10032;51.386;12.516;2022-08-01T05:09:34;99998.72;;;21.57;100.00
19748;BME280;10032;51.386;12.516;2022-08-01T05:12:01;99999.50;;;21.66;100.00
19748;BME280;10032;51.386;12.516;2022-08-01T05:14:27;99996.78;;;21.75;100.00
19748;BME280;10032;51.386;12.516;2022-08-01T05:16:53;99992.72;;;21.81;100.00
19748;BME280;10032;51.386;12.516;2022-08-01T05:19:20;99994.47;;;21.85;100.00
19748;BME280;10032;51.386;12.516;2022-08-01T05:21:45;99989.81;;;21.77;100.00
19748;BME280;10032;51.386;12.516;2022-08-01T05:24:11;99985.22;;;21.81;100.00
19748;BME280;10032;51.386;12.516;2022-08-01T05:26:38;99987.19;;;21.89;100.00
19748;BME280;10032;51.386;12.516;2022-08-01T05:29:03;99991.38;;;21.95;100.00
19748;BME280;10032;51.386;12.516;2022-08-01T05:31:29;99986.00;;;21.99;100.00
19748;BME280;10032;51.386;12.516;2022-08-01T05:33:54;99994.25;;;22.07;100.00
19748;BME280;10032;51.386;12.516;2022-08-01T05:36:19;99984.34;;;22.15;100.00
19748;BME280;10032;51.386;12.516;2022-08-01T05:38:45;99992.59;;;22.23;100.00
19748;BME280;10032;51.386;12.516;2022-08-01T05:41:10;99996.97;;;22.24;100.00
19748;BME280;10032;51.386;12.516;2022-08-01T05:43:36;99996.78;;;22.29;100.00
19748;BME280;10032;51.386;12.516;2022-08-01T05:46:01;99990.94;;;22.31;100.00
19748;BME280;10032;51.386;12.516;2022-08-01T05:48:26;99992.22;;;22.33;100.00
19748;BME280;10032;51.386;12.516;2022-08-01T05:50:53;99993.69;;;22.31;100.00
19748;BME280;10032;51.386;12.516;2022-08-01T05:53:18;99994.66;;;22.35;100.00
19748;BME280;10032;51.386;12.516;2022-08-01T05:55:43;99990.56;;;22.49;100.00
19748;BME280;10032;51.386;12.516;2022-08-01T05:58:09;99995.59;;;22.56;100.00
19748;BME280;10032;51.386;12.516;2022-08-01T06:00:34;99991.81;;;22.60;100.00
19748;BME280;10032;51.386;12.516;2022-08-01T06:03:00;99998.94;;;22.61;100.00
19748;BME280;10032;51.386;12.516;2022-08-01T06:05:25;99993.06;;;22.71;100.00
19748;BME280;10032;51.386;12.516;2022-08-01T06:07:50;99998.50;;;22.88;100.00
19748;BME280;10032;51.386;12.516;2022-08-01T06:10:16;100004.38;;;23.07;100.00
19748;BME280;10032;51.386;12.516;2022-08-01T06:12:41;100001.06;;;23.22;100.00
19748;BME280;10032;51.386;12.516;2022-08-01T06:15:08;100003.16;;;23.25;100.00
19748;BME280;10032;51.386;12.516;2022-08-01T06:17:33;99998.44;;;23.46;100.00
19748;BME280;10032;51.386;12.516;2022-08-01T06:19:58;99995.97;;;23.65;100.00
19748;BME280;10032;51.386;12.516;2022-08-01T06:22:25;100000.44;;;23.78;100.00
19748;BME280;10032;51.386;12.516;2022-08-01T06:24:50;99993.47;;;23.72;100.00
19748;BME280;10032;51.386;12.516;2022-08-01T06:27:15;100008.44;;;23.71;100.00
19748;BME280;10032;51.386;12.516;2022-08-01T06:29:41;100008.13;;;23.73;100.00
19748;BME280;10032;51.386;12.516;2022-08-01T06:32:08;100008.66;;;23.66;100.00
19748;BME280;10032;51.386;12.516;2022-08-01T06:34:34;100006.38;;;23.68;100.00
19748;BME280;10032;51.386;12.516;2022-08-01T06:37:00;100003.41;;;23.73;100.00
19748;BME280;10032;51.386;12.516;2022-08-01T06:39:25;100011.34;;;23.75;100.00
19748;BME280;10032;51.386;12.516;2022-08-01T06:41:51;100010.81;;;23.81;100.00
19748;BME280;10032;51.386;12.516;2022-08-01T06:44:16;100015.78;;;23.88;100.00
19748;BME280;10032;51.386;12.516;2022-08-01T06:46:41;100005.81;;;23.95;100.00
19748;BME280;10032;51.386;12.516;2022-08-01T06:49:07;100003.06;;;23.95;100.00
19748;BME280;10032;51.386;12.516;2022-08-01T06:51:32;100001.44;;;23.94;100.00
19748;BME280;10032;51.386;12.516;2022-08-01T06:53:58;100008.75;;;24.11;100.00
19748;BME280;10032;51.386;12.516;2022-08-01T06:56:23;100010.75;;;24.22;100.00
19748;BME280;10032;51.386;12.516;2022-08-01T06:58:49;100016.63;;;24.33;100.00
19748;BME280;10032;51.386;12.516;2022-08-01T07:01:15;100010.97;;;24.29;100.00
19748;BME280;10032;51.386;12.516;2022-08-01T07:03:40;100025.53;;;24.26;100.00
19748;BME280;10032;51.386;12.516;2022-08-01T07:06:06;100024.38;;;24.27;100.00
19748;BME280;10032;51.386;12.516;2022-08-01T07:08:31;100023.44;;;24.23;100.00
19748;BME280;10032;51.386;12.516;2022-08-01T07:10:56;100024.13;;;24.20;100.00
19748;BME280;10032;51.386;12.516;2022-08-01T07:13:26;100030.09;;;24.10;100.00
19748;BME280;10032;51.386;12.516;2022-08-01T07:15:51;100024.56;;;24.10;100.00
19748;BME280;10032;51.386;12.516;2022-08-01T07:18:17;100026.38;;;24.06;100.00
19748;BME280;10032;51.386;12.516;2022-08-01T07:20:43;100024.16;;;24.00;100.00
19748;BME280;10032;51.386;12.516;2022-08-01T07:23:11;100021.72;;;23.98;100.00
19748;BME280;10032;51.386;12.516;2022-08-01T07:25:36;100025.66;;;23.97;100.00
19748;BME280;10032;51.386;12.516;2022-08-01T07:28:02;100031.19;;;23.97;100.00
19748;BME280;10032;51.386;12.516;2022-08-01T07:30:27;100028.31;;;23.94;100.00
19748;BME280;10032;51.386;12.516;2022-08-01T07:32:53;100026.03;;;23.87;100.00
19748;BME280;10032;51.386;12.516;2022-08-01T07:35:18;100027.97;;;23.95;100.00
19748;BME280;10032;51.386;12.516;2022-08-01T07:37:43;100030.84;;;23.99;100.00
19748;BME280;10032;51.386;12.516;2022-08-01T07:40:09;100029.34;;;23.89;100.00
19748;BME280;10032;51.386;12.516;2022-08-01T07:42:35;100033.44;;;23.83;100.00
19748;BME280;10032;51.386;12.516;2022-08-01T07:45:00;100039.44;;;23.85;100.00
19748;BME280;10032;51.386;12.516;2022-08-01T07:47:26;100052.28;;;23.69;100.00
19748;BME280;10032;51.386;12.516;2022-08-01T07:49:58;100056.09;;;23.56;100.00
19748;BME280;10032;51.386;12.516;2022-08-01T07:52:23;100065.69;;;23.38;100.00
19748;BME280;10032;51.386;12.516;2022-08-01T07:54:49;100058.28;;;23.30;100.00
19748;BME280;10032;51.386;12.516;2022-08-01T07:57:14;100059.41;;;23.29;100.00
19748;BME280;10032;51.386;12.516;2022-08-01T07:59:39;100056.56;;;23.38;100.00
19748;BME280;10032;51.386;12.516;2022-08-01T08:02:05;100060.91;;;23.47;100.00
19748;BME280;10032;51.386;12.516;2022-08-01T08:04:30;100059.06;;;23.51;100.00
19748;BME280;10032;51.386;12.516;2022-08-01T08:06:56;100048.75;;;23.60;100.00
19748;BME280;10032;51.386;12.516;2022-08-01T08:09:21;100055.06;;;24.22;100.00
19748;BME280;10032;51.386;12.516;2022-08-01T08:11:48;100044.28;;;24.53;100.00
19748;BME280;10032;51.386;12.516;2022-08-01T08:14:13;100046.84;;;24.58;100.00
19748;BME280;10032;51.386;12.516;2022-08-01T08:16:39;100053.78;;;24.76;100.00
19748;BME280;10032;51.386;12.516;2022-08-01T08:19:04;100050.91;;;24.61;100.00
19748;BME280;10032;51.386;12.516;2022-08-01T08:21:30;100052.31;;;24.46;100.00
19748;BME280;10032;51.386;12.516;2022-08-01T08:23:56;100054.81;;;24.15;100.00
19748;BME280;10032;51.386;12.516;2022-08-01T08:26:40;100052.50;;;24.17;100.00
19748;BME280;10032;51.386;12.516;2022-08-01T08:29:06;100051.44;;;24.54;100.00
19748;BME280;10032;51.386;12.516;2022-08-01T08:31:31;100045.94;;;25.02;100.00
19748;BME280;10032;51.386;12.516;2022-08-01T08:33:57;100052.75;;;24.93;100.00
19748;BME280;10032;51.386;12.516;2022-08-01T08:36:22;100053.22;;;24.83;100.00
19748;BME280;10032;51.386;12.516;2022-08-01T08:38:47;100047.66;;;24.59;100.00
19748;BME280;10032;51.386;12.516;2022-08-01T08:41:13;100050.47;;;24.38;100.00
19748;BME280;10032;51.386;12.516;2022-08-01T08:43:39;100049.84;;;24.77;100.00
19748;BME280;10032;51.386;12.516;2022-08-01T08:46:05;100052.41;;;25.30;100.00
19748;BME280;10032;51.386;12.516;2022-08-01T08:48:33;100056.34;;;25.29;100.00
19748;BME280;10032;51.386;12.516;2022-08-01T08:51:00;100059.34;;;25.12;100.00
19748;BME280;10032;51.386;12.516;2022-08-01T08:53:25;100053.81;;;25.00;100.00
19748;BME280;10032;51.386;12.516;2022-08-01T08:55:51;100061.78;;;25.14;100.00
19748;BME280;10032;51.386;12.516;2022-08-01T08:58:17;100067.09;;;25.19;100.00
19748;BME280;10032;51.386;12.516;2022-08-01T09:00:44;100063.03;;;25.16;100.00
19748;BME280;10032;51.386;12.516;2022-08-01T09:03:10;100066.59;;;25.17;100.00
19748;BME280;10032;51.386;12.516;2022-08-01T09:05:35;100067.75;;;25.16;100.00
19748;BME280;10032;51.386;12.516;2022-08-01T09:08:00;100070.69;;;25.31;100.00
19748;BME280;10032;51.386;12.516;2022-08-01T09:10:26;100071.56;;;25.59;100.00
19748;BME280;10032;51.386;12.516;2022-08-01T09:23:49;100081.03;;;26.25;100.00
19748;BME280;10032;51.386;12.516;2022-08-01T09:26:20;100075.03;;;26.23;100.00
19748;BME280;10032;51.386;12.516;2022-08-01T09:28:47;100079.25;;;26.17;100.00
19748;BME280;10032;51.386;12.516;2022-08-01T09:31:14;100087.97;;;25.64;100.00
19748;BME280;10032;51.386;12.516;2022-08-01T09:33:54;100089.88;;;25.36;100.00
19748;BME280;10032;51.386;12.516;2022-08-01T09:36:25;100098.88;;;25.21;100.00
19748;BME280;10032;51.386;12.516;2022-08-01T09:38:52;100096.28;;;25.64;100.00
19748;BME280;10032;51.386;12.516;2022-08-01T09:41:29;100099.59;;;26.21;100.00
19748;BME280;10032;51.386;12.516;2022-08-01T09:43:55;100105.09;;;26.06;100.00
19748;BME280;10032;51.386;12.516;2022-08-01T09:46:21;100101.63;;;26.09;100.00
19748;BME280;10032;51.386;12.516;2022-08-01T09:49:00;100109.53;;;25.95;100.00
19748;BME280;10032;51.386;12.516;2022-08-01T09:51:31;100113.59;;;25.85;100.00
19748;BME280;10032;51.386;12.516;2022-08-01T09:53:57;100107.22;;;25.85;100.00
19748;BME280;10032;51.386;12.516;2022-08-01T09:56:24;100118.59;;;25.68;100.00
19748;BME280;10032;51.386;12.516;2022-08-01T09:58:57;100122.44;;;25.63;100.00
19748;BME280;10032;51.386;12.516;2022-08-01T10:01:24;100128.88;;;25.67;100.00
19748;BME280;10032;51.386;12.516;2022-08-01T10:04:19;100125.09;;;25.48;100.00
19748;BME280;10032;51.386;12.516;2022-08-01T10:06:49;100127.06;;;25.59;100.00
19748;BME280;10032;51.386;12.516;2022-08-01T10:09:30;100124.75;;;25.61;100.00
19748;BME280;10032;51.386;12.516;2022-08-01T10:11:56;100132.13;;;25.69;100.00
19748;BME280;10032;51.386;12.516;2022-08-01T10:14:27;100132.16;;;25.57;100.00
19748;BME280;10032;51.386;12.516;2022-08-01T10:16:56;100124.31;;;25.47;100.00
19748;BME280;10032;51.386;12.516;2022-08-01T10:19:23;100124.75;;;25.61;100.00
19748;BME280;10032;51.386;12.516;2022-08-01T10:21:50;100123.09;;;25.84;100.00
19748;BME280;10032;51.386;12.516;2022-08-01T10:24:20;100123.03;;;26.36;100.00
19748;BME280;10032;51.386;12.516;2022-08-01T10:26:52;100120.69;;;26.81;100.00
19748;BME280;10032;51.386;12.516;2022-08-01T10:29:19;100118.03;;;27.00;100.00
19748;BME280;10032;51.386;12.516;2022-08-01T10:31:46;100115.19;;;27.27;100.00
19748;BME280;10032;51.386;12.516;2022-08-01T10:34:13;100117.63;;;27.63;100.00
19748;BME280;10032;51.386;12.516;2022-08-01T10:36:42;100105.34;;;27.49;100.00
19748;BME280;10032;51.386;12.516;2022-08-01T10:39:10;100103.03;;;27.70;100.00
19748;BME280;10032;51.386;12.516;2022-08-01T10:41:36;100108.22;;;28.06;100.00
19748;BME280;10032;51.386;12.516;2022-08-01T10:44:03;100114.75;;;28.13;96.59
19748;BME280;10032;51.386;12.516;2022-08-01T10:46:30;100101.56;;;27.76;95.89
19748;BME280;10032;51.386;12.516;2022-08-01T10:49:03;100113.34;;;27.50;94.60
19748;BME280;10032;51.386;12.516;2022-08-01T10:51:30;100116.94;;;27.35;94.60
19748;BME280;10032;51.386;12.516;2022-08-01T10:53:56;100102.59;;;27.33;94.04
19748;BME280;10032;51.386;12.516;2022-08-01T10:56:22;100102.53;;;27.30;95.56
19748;BME280;10032;51.386;12.516;2022-08-01T10:58:49;100103.50;;;27.22;95.13
19748;BME280;10032;51.386;12.516;2022-08-01T11:01:29;100100.44;;;27.11;95.16
19748;BME280;10032;51.386;12.516;2022-08-01T11:06:24;100094.69;;;27.35;94.43
19748;BME280;10032;51.386;12.516;2022-08-01T11:08:52;100093.22;;;27.41;93.52
19748;BME280;10032;51.386;12.516;2022-08-01T11:11:19;100090.81;;;27.40;91.63
19748;BME280;10032;51.386;12.516;2022-08-01T11:16:30;100100.09;;;27.28;91.09
19748;BME280;10032;51.386;12.516;2022-08-01T11:18:56;100101.06;;;27.20;92.18
19748;BME280;10032;51.386;12.516;2022-08-01T11:21:22;100097.75;;;27.30;92.50
19748;BME280;10032;51.386;12.516;2022-08-01T11:23:51;100094.75;;;27.73;91.08
19748;BME280;10032;51.386;12.516;2022-08-01T11:26:19;100093.28;;;27.60;90.78
19748;BME280;10032;51.386;12.516;2022-08-01T11:28:46;100103.81;;;27.51;91.34
19748;BME280;10032;51.386;12.516;2022-08-01T11:31:31;100111.22;;;27.78;92.83
19748;BME280;10032;51.386;12.516;2022-08-01T11:33:58;100104.63;;;27.86;90.58
19748;BME280;10032;51.386;12.516;2022-08-01T11:36:24;100108.16;;;28.02;90.78
19748;BME280;10032;51.386;12.516;2022-08-01T11:39:10;100112.78;;;28.14;89.81
19748;BME280;10032;51.386;12.516;2022-08-01T11:41:36;100113.28;;;27.81;87.96
19748;BME280;10032;51.386;12.516;2022-08-01T11:44:15;100120.69;;;27.58;88.36
19748;BME280;10032;51.386;12.516;2022-08-01T11:51:57;100120.19;;;28.06;90.37
19748;BME280;10032;51.386;12.516;2022-08-01T11:54:37;100115.34;;;27.84;91.42
19748;BME280;10032;51.386;12.516;2022-08-01T11:57:05;100119.16;;;27.61;91.41
19748;BME280;10032;51.386;12.516;2022-08-01T11:59:40;100137.06;;;27.44;91.42
19748;BME280;10032;51.386;12.516;2022-08-01T12:04:50;100124.13;;;27.52;92.82
19748;BME280;10032;51.386;12.516;2022-08-01T12:07:17;100113.81;;;27.37;92.53
19748;BME280;10032;51.386;12.516;2022-08-01T12:09:43;100128.59;;;27.56;92.38
19748;BME280;10032;51.386;12.516;2022-08-01T12:12:09;100120.44;;;27.82;90.46
19748;BME280;10032;51.386;12.516;2022-08-01T12:14:35;100122.38;;;27.97;90.45
19748;BME280;10032;51.386;12.516;2022-08-01T12:17:00;100118.28;;;28.29;89.13
19748;BME280;10032;51.386;12.516;2022-08-01T12:19:26;100115.56;;;28.52;87.53
19748;BME280;10032;51.386;12.516;2022-08-01T12:22:11;100120.69;;;28.50;83.96
19748;BME280;10032;51.386;12.516;2022-08-01T12:24:39;100124.50;;;28.83;86.48
19748;BME280;10032;51.386;12.516;2022-08-01T12:27:06;100124.59;;;29.32;85.55
19748;BME280;10032;51.386;12.516;2022-08-01T12:29:33;100122.69;;;29.13;83.53
19748;BME280;10032;51.386;12.516;2022-08-01T12:31:59;100117.28;;;28.60;81.67
19748;BME280;10032;51.386;12.516;2022-08-01T12:34:26;100119.75;;;28.23;81.70
19748;BME280;10032;51.386;12.516;2022-08-01T12:36:55;100127.59;;;28.56;82.92
19748;BME280;10032;51.386;12.516;2022-08-01T12:39:21;100124.84;;;29.23;82.46
19748;BME280;10032;51.386;12.516;2022-08-01T12:41:46;100119.81;;;29.58;81.85
19748;BME280;10032;51.386;12.516;2022-08-01T12:44:13;100120.28;;;29.60;79.61
19748;BME280;10032;51.386;12.516;2022-08-01T12:46:40;100128.25;;;29.36;78.25
19748;BME280;10032;51.386;12.516;2022-08-01T12:49:06;100131.06;;;29.13;77.59
19748;BME280;10032;51.386;12.516;2022-08-01T12:51:33;100130.53;;;28.85;78.83
19748;BME280;10032;51.386;12.516;2022-08-01T12:53:59;100130.03;;;28.80;79.83
19748;BME280;10032;51.386;12.516;2022-08-01T12:56:32;100128.38;;;28.56;80.62
19748;BME280;10032;51.386;12.516;2022-08-01T12:59:00;100131.63;;;28.20;81.00
19748;BME280;10032;51.386;12.516;2022-08-01T13:01:26;100129.94;;;28.35;82.86
19748;BME280;10032;51.386;12.516;2022-08-01T13:04:02;100128.91;;;28.62;81.44
19748;BME280;10032;51.386;12.516;2022-08-01T13:06:31;100145.53;;;28.77;80.52
19748;BME280;10032;51.386;12.516;2022-08-01T13:09:10;100136.03;;;29.01;81.08
19748;BME280;10032;51.386;12.516;2022-08-01T13:11:37;100135.06;;;29.38;81.25
19748;BME280;10032;51.386;12.516;2022-08-01T13:14:03;100140.16;;;29.55;80.31